イスタンブル の空港の天気 - METARとTAF

アタテュルク国際空港(イスタンブル) ( LTBA / IST ) - トルコ イスタンブル
飛行場実況気象(Metar)
観測時間11/17 03:20 EET (11/17 00:20 UTC)
風向・風速北 5m/s
視程10km以上
天気現象
全天の8割程度の雲 雲底高度 1070m
気温8℃
湿度76%
気圧1027hPa
METARLTBA 170020Z 36010KT 330V110 9999 BKN035 08/04 Q1027 NOSIG RMK RWY17L 01010KT RWY05 34009KT RWY23 01007KT 340V040
過去の天気等 Google飛行場航空写真 Wunderground天気予報

過去48時間のMETAR

飛行場予報(TAF)
発表時間: 11/17 01:40 EET (11/16 22:40 UTC)
予報対象時間: 17日3時 EET ~ 18日9時 EET
風向・風速北 7m/s
視程10km以上
全天の8割程度の雲 雲底高度 1070m
17日6時 EET ~ 17日10時 EET に一時的に
天気現象弱いしゅう雨
少しの雲 雲底高度 430m
全天の8割程度の雲 雲底高度 820m
17日14時 EET ~ 17日18時 EET に一時的に
風向・風速北東 8m/s 瞬間風速 13m/s
TAF LTBA 162240Z 1700/1806 01013KT 9999 BKN035
TEMPO 1703/1707 -SHRA FEW014 BKN027
TEMPO 1711/1715 04016G26KT